臺北終端管制區 - 桃園五邊雷達席

METAR RCTP 200330Z 02017KT 9999 FEW012 BKN025 BKN040 25/20 Q1007 WS ALL RWY NOSIG RMK A2976=

站台狀態:Online
最後更新:2019-09-20 11:45:01